Time;durP1;ratioP1;P1;durP2;ratioP2;P2;SDS_P1;SDS_P2;PMS_P1;PMS_P2;Temp;Humidity;BMP_temperature;BMP_pressure;BME280_temperature;BME280_humidity;BME280_pressure;Samples;Min_cycle;Max_cycle;Signal;HPM_P1;HPM_P2
2021/01/30 00:01:25;;;;;;;17.10;13.20;;;;;;;;;;5070407;28;20459;-52
2021/01/30 00:03:51;;;;;;;17.30;13.03;;;;;;;;;;5070637;28;20529;-52
2021/01/30 00:06:17;;;;;;;19.73;12.93;;;;;;;;;;5070372;28;20412;-52
2021/01/30 00:08:43;;;;;;;22.40;13.47;;;;;;;;;;5070098;28;20511;-52
2021/01/30 00:11:13;;;;;;;24.38;14.30;;;;;;;;;;5070493;28;20401;-52
2021/01/30 00:13:41;;;;;;;20.02;14.30;;;;;;;;;;5073879;28;20571;-51
2021/01/30 00:16:07;;;;;;;20.50;13.82;;;;;;;;;;5073679;28;20181;-54
2021/01/30 00:18:33;;;;;;;21.90;14.00;;;;;;;;;;5074056;28;20529;-53
2021/01/30 00:20:59;;;;;;;21.37;14.30;;;;;;;;;;5073892;28;20526;-51
2021/01/30 00:23:25;;;;;;;18.37;13.30;;;;;;;;;;5086076;28;20744;-51
2021/01/30 00:25:51;;;;;;;23.13;12.60;;;;;;;;;;5093918;28;20391;-52
2021/01/30 00:28:17;;;;;;;20.60;12.50;;;;;;;;;;5094345;28;20802;-51
2021/01/30 00:30:43;;;;;;;30.30;15.77;;;;;;;;;;5094104;28;20261;-52
2021/01/30 00:33:09;;;;;;;26.53;12.53;;;;;;;;;;5094081;28;20766;-51
2021/01/30 00:35:35;;;;;;;26.83;13.63;;;;;;;;;;5093728;28;20782;-52
2021/01/30 00:38:01;;;;;;;22.42;13.23;;;;;;;;;;5093882;28;20886;-51
2021/01/30 00:40:28;;;;;;;23.83;13.83;;;;;;;;;;5094036;28;20242;-52
2021/01/30 00:42:54;;;;;;;26.73;13.27;;;;;;;;;;5093725;28;20392;-52
2021/01/30 00:45:22;;;;;;;21.75;13.93;;;;;;;;;;5078031;28;20777;-52
2021/01/30 00:47:48;;;;;;;20.50;13.23;;;;;;;;;;5073189;28;20557;-53
2021/01/30 00:50:14;;;;;;;23.00;12.70;;;;;;;;;;5073445;28;20620;-52
2021/01/30 00:52:42;;;;;;;22.75;12.77;;;;;;;;;;5073238;28;20172;-52
2021/01/30 00:55:09;;;;;;;31.70;13.75;;;;;;;;;;5073267;28;20169;-51
2021/01/30 00:57:35;;;;;;;21.77;12.77;;;;;;;;;;5072865;28;20630;-52
2021/01/30 01:00:01;;;;;;;26.10;15.27;;;;;;;;;;5073329;28;20204;-52
2021/01/30 01:02:27;;;;;;;22.17;12.55;;;;;;;;;;5072945;28;20863;-51
2021/01/30 01:04:53;;;;;;;20.63;13.43;;;;;;;;;;5073226;28;20207;-51
2021/01/30 01:07:19;;;;;;;23.45;12.85;;;;;;;;;;5072758;28;20806;-52
2021/01/30 01:09:45;;;;;;;24.70;13.40;;;;;;;;;;5072891;28;20187;-53
2021/01/30 01:12:12;;;;;;;18.27;11.80;;;;;;;;;;5073187;28;20390;-52
2021/01/30 01:14:38;;;;;;;24.10;12.95;;;;;;;;;;5072695;28;20416;-52
2021/01/30 01:17:04;;;;;;;19.60;12.17;;;;;;;;;;5072276;28;20252;-52
2021/01/30 01:19:30;;;;;;;17.48;11.75;;;;;;;;;;5072772;28;20421;-51
2021/01/30 01:21:56;;;;;;;18.73;10.55;;;;;;;;;;5072782;28;20197;-52
2021/01/30 01:24:22;;;;;;;20.90;12.63;;;;;;;;;;5071302;28;20249;-52
2021/01/30 01:26:49;;;;;;;21.42;10.95;;;;;;;;;;5072664;28;20560;-52
2021/01/30 01:29:16;;;;;;;22.65;12.18;;;;;;;;;;5073083;28;20192;-51
2021/01/30 01:31:42;;;;;;;19.77;12.27;;;;;;;;;;5072794;28;20182;-50
2021/01/30 01:34:08;;;;;;;20.63;12.48;;;;;;;;;;5072556;28;20162;-50
2021/01/30 01:36:34;;;;;;;19.60;11.65;;;;;;;;;;5072837;28;20685;-50
2021/01/30 01:39:00;;;;;;;20.40;11.65;;;;;;;;;;5072122;28;20561;-50
2021/01/30 01:41:26;;;;;;;20.73;11.90;;;;;;;;;;5072371;28;20201;-50
2021/01/30 01:43:52;;;;;;;21.33;11.40;;;;;;;;;;5072273;28;20475;-50
2021/01/30 01:46:21;;;;;;;17.70;11.55;;;;;;;;;;5071867;28;20517;-50
2021/01/30 01:48:59;;;;;;;17.60;10.80;;;;;;;;;;5071971;28;20242;-54
2021/01/30 01:51:30;;;;;;;18.38;11.45;;;;;;;;;;5072259;28;20589;-53
2021/01/30 01:53:57;;;;;;;18.38;10.90;;;;;;;;;;5070771;28;20271;-50
2021/01/30 01:56:25;;;;;;;19.83;11.88;;;;;;;;;;5072224;28;20602;-51
2021/01/30 01:58:53;;;;;;;21.50;11.80;;;;;;;;;;5072029;28;20194;-50
2021/01/30 02:01:20;;;;;;;19.95;11.73;;;;;;;;;;5072003;28;20195;-55
2021/01/30 02:03:51;;;;;;;18.17;10.23;;;;;;;;;;5072048;28;20215;-50
2021/01/30 02:06:17;;;;;;;17.95;12.00;;;;;;;;;;5071686;28;20627;-50
2021/01/30 02:08:44;;;;;;;20.20;11.55;;;;;;;;;;5071845;28;20195;-52
2021/01/30 02:11:10;;;;;;;15.38;11.73;;;;;;;;;;5071784;28;20664;-52
2021/01/30 02:13:45;;;;;;;16.07;10.90;;;;;;;;;;5072179;28;20176;-53
2021/01/30 02:16:30;;;;;;;14.93;10.70;;;;;;;;;;5071157;28;20456;-52
2021/01/30 02:19:14;;;;;;;16.33;10.13;;;;;;;;;;5071785;28;20225;-51
2021/01/30 02:21:58;;;;;;;14.75;10.70;;;;;;;;;;5071452;28;20233;-53
2021/01/30 02:24:52;;;;;;;19.92;12.13;;;;;;;;;;5071604;28;20167;-53
2021/01/30 02:27:27;;;;;;;20.60;12.00;;;;;;;;;;5071366;28;20249;-52
2021/01/30 02:30:02;;;;;;;22.33;13.60;;;;;;;;;;5071430;28;20193;-52
2021/01/30 02:32:47;;;;;;;24.65;13.77;;;;;;;;;;5071331;28;20626;-52
2021/01/30 02:35:26;;;;;;;27.23;14.70;;;;;;;;;;5071363;28;20229;-55
2021/01/30 02:38:05;;;;;;;25.05;13.98;;;;;;;;;;5071242;28;20178;-52
2021/01/30 02:40:35;;;;;;;27.70;15.68;;;;;;;;;;5071145;28;20220;-52
2021/01/30 02:43:05;;;;;;;28.98;16.70;;;;;;;;;;5071203;28;20208;-52
2021/01/30 02:45:34;;;;;;;29.10;17.02;;;;;;;;;;5070965;28;20355;-52
2021/01/30 02:48:02;;;;;;;32.72;17.73;;;;;;;;;;5071131;28;20197;-51
2021/01/30 02:50:32;;;;;;;31.90;15.85;;;;;;;;;;5071082;28;20206;-53
2021/01/30 02:52:59;;;;;;;27.90;16.45;;;;;;;;;;5070944;28;20166;-52
2021/01/30 02:55:26;;;;;;;35.33;19.83;;;;;;;;;;5070862;28;20174;-52
2021/01/30 02:57:54;;;;;;;32.08;16.38;;;;;;;;;;5070787;28;20529;-52
2021/01/30 03:00:21;;;;;;;30.50;17.05;;;;;;;;;;5070831;28;20230;-52
2021/01/30 03:02:47;;;;;;;29.75;15.85;;;;;;;;;;5070781;28;20202;-52
2021/01/30 03:05:13;;;;;;;37.83;18.97;;;;;;;;;;5070900;28;20221;-52
2021/01/30 03:07:42;;;;;;;41.58;19.52;;;;;;;;;;5070554;28;20820;-51
2021/01/30 03:10:19;;;;;;;34.33;18.20;;;;;;;;;;5070779;28;20662;-52
2021/01/30 03:12:55;;;;;;;34.10;17.17;;;;;;;;;;5070650;28;20167;-53
2021/01/30 03:15:21;;;;;;;34.15;16.52;;;;;;;;;;5073956;28;20184;-52
2021/01/30 03:17:47;;;;;;;31.23;16.20;;;;;;;;;;5090000;28;20189;-52
2021/01/30 03:20:14;;;;;;;29.10;15.75;;;;;;;;;;5091018;28;20559;-52
2021/01/30 03:22:41;;;;;;;27.08;14.02;;;;;;;;;;5090907;28;20660;-51
2021/01/30 03:25:08;;;;;;;26.65;16.27;;;;;;;;;;5090794;28;20420;-52
2021/01/30 03:27:34;;;;;;;23.00;14.35;;;;;;;;;;5090652;28;20168;-51
2021/01/30 03:30:01;;;;;;;22.70;14.15;;;;;;;;;;5090749;28;20188;-52
2021/01/30 03:32:28;;;;;;;27.98;15.45;;;;;;;;;;5090897;28;20169;-51
2021/01/30 03:34:54;;;;;;;26.95;15.27;;;;;;;;;;5090751;28;20167;-52
2021/01/30 03:37:21;;;;;;;23.27;14.48;;;;;;;;;;5090555;28;20676;-52
2021/01/30 03:39:48;;;;;;;22.55;13.35;;;;;;;;;;5090542;28;20194;-53
2021/01/30 03:42:14;;;;;;;21.73;13.52;;;;;;;;;;5088749;28;20198;-52
2021/01/30 03:44:40;;;;;;;22.50;13.55;;;;;;;;;;5071015;28;20645;-52
2021/01/30 03:47:06;;;;;;;26.25;16.23;;;;;;;;;;5071501;28;20189;-52
2021/01/30 03:49:32;;;;;;;21.52;12.73;;;;;;;;;;5074391;28;20182;-52
2021/01/30 03:51:58;;;;;;;25.43;14.47;;;;;;;;;;5074538;28;20162;-52
2021/01/30 03:54:24;;;;;;;22.07;15.40;;;;;;;;;;5074518;28;20891;-52
2021/01/30 03:56:50;;;;;;;22.10;13.97;;;;;;;;;;5074119;28;20939;-53
2021/01/30 03:59:17;;;;;;;27.80;15.50;;;;;;;;;;5074551;28;20451;-55
2021/01/30 04:01:43;;;;;;;24.45;15.90;;;;;;;;;;5074496;28;20487;-52
2021/01/30 04:04:09;;;;;;;25.85;16.30;;;;;;;;;;5074669;28;20162;-52
2021/01/30 04:06:35;;;;;;;21.95;15.20;;;;;;;;;;5074003;28;20618;-51
2021/01/30 04:09:01;;;;;;;24.83;15.23;;;;;;;;;;5073951;28;20223;-52
2021/01/30 04:11:28;;;;;;;28.10;15.77;;;;;;;;;;5074004;28;20483;-52
2021/01/30 04:13:55;;;;;;;26.88;14.85;;;;;;;;;;5074946;28;20233;-52
2021/01/30 04:16:21;;;;;;;29.60;17.58;;;;;;;;;;5073728;28;20193;-53
2021/01/30 04:18:47;;;;;;;26.52;15.30;;;;;;;;;;5073924;28;20452;-52
2021/01/30 04:21:13;;;;;;;26.15;16.48;;;;;;;;;;5073653;28;20205;-52
2021/01/30 04:23:39;;;;;;;28.38;16.27;;;;;;;;;;5073855;28;20162;-52
2021/01/30 04:26:05;;;;;;;27.67;15.95;;;;;;;;;;5073519;28;20163;-53
2021/01/30 04:28:31;;;;;;;26.83;16.92;;;;;;;;;;5073688;28;20175;-52
2021/01/30 04:30:57;;;;;;;24.53;15.40;;;;;;;;;;5073768;28;20174;-53
2021/01/30 04:33:23;;;;;;;23.75;14.88;;;;;;;;;;5073591;28;20436;-53
2021/01/30 04:35:49;;;;;;;28.77;17.50;;;;;;;;;;5073496;28;20251;-51
2021/01/30 04:38:15;;;;;;;28.85;17.83;;;;;;;;;;5073444;28;20501;-51
2021/01/30 04:40:42;;;;;;;25.85;16.83;;;;;;;;;;5073694;28;20181;-52
2021/01/30 04:43:30;;;;;;;23.85;14.07;;;;;;;;;;5072943;28;20220;-52
2021/01/30 04:45:58;;;;;;;34.20;16.90;;;;;;;;;;5073394;28;20436;-52
2021/01/30 04:48:27;;;;;;;26.70;16.30;;;;;;;;;;5073076;28;20188;-52
2021/01/30 04:51:01;;;;;;;31.17;18.67;;;;;;;;;;5073407;28;20170;-53
2021/01/30 04:53:32;;;;;;;29.98;16.80;;;;;;;;;;5073463;28;20181;-52
2021/01/30 04:56:02;;;;;;;29.05;16.98;;;;;;;;;;5073099;28;20174;-53
2021/01/30 04:58:40;;;;;;;29.00;16.73;;;;;;;;;;5072884;28;20236;-51
2021/01/30 05:01:27;;;;;;;26.38;16.00;;;;;;;;;;5073117;28;20197;-54
2021/01/30 05:04:15;;;;;;;25.50;15.40;;;;;;;;;;5073164;28;20174;-53
2021/01/30 05:06:44;;;;;;;26.83;14.40;;;;;;;;;;5073117;28;20454;-52
2021/01/30 05:09:13;;;;;;;27.52;15.70;;;;;;;;;;5072827;28;20328;-53
2021/01/30 05:11:39;;;;;;;25.67;15.35;;;;;;;;;;5071744;28;20178;-51
2021/01/30 05:14:11;;;;;;;21.33;13.70;;;;;;;;;;5072966;28;20542;-52
2021/01/30 05:17:03;;;;;;;25.20;15.23;;;;;;;;;;5072775;28;20193;-51
2021/01/30 05:19:31;;;;;;;29.83;16.70;;;;;;;;;;5069900;28;20570;-51
2021/01/30 05:21:59;;;;;;;28.23;15.88;;;;;;;;;;5073235;28;20193;-51
2021/01/30 05:24:26;;;;;;;28.42;17.50;;;;;;;;;;5072642;28;20211;-51
2021/01/30 05:26:52;;;;;;;25.15;16.10;;;;;;;;;;5072499;28;20175;-53
2021/01/30 05:29:21;;;;;;;27.90;16.83;;;;;;;;;;5072540;28;20277;-52
2021/01/30 05:32:02;;;;;;;27.35;14.73;;;;;;;;;;5072617;28;20411;-51
2021/01/30 05:34:46;;;;;;;26.80;15.60;;;;;;;;;;5072434;28;20177;-51
2021/01/30 05:37:17;;;;;;;27.63;15.45;;;;;;;;;;5072461;28;20539;-51
2021/01/30 05:39:55;;;;;;;34.63;15.52;;;;;;;;;;5072565;28;20688;-51
2021/01/30 05:42:25;;;;;;;26.80;15.35;;;;;;;;;;5072493;28;20657;-51
2021/01/30 05:44:54;;;;;;;26.25;13.77;;;;;;;;;;5072362;28;20184;-52
2021/01/30 05:47:22;;;;;;;23.15;13.82;;;;;;;;;;5072109;28;20223;-52
2021/01/30 05:50:00;;;;;;;18.77;12.25;;;;;;;;;;5072239;28;20202;-52
2021/01/30 05:52:29;;;;;;;20.75;13.73;;;;;;;;;;5072256;28;20535;-51
2021/01/30 05:54:55;;;;;;;17.65;12.52;;;;;;;;;;5072235;28;20196;-53
2021/01/30 05:57:21;;;;;;;16.80;11.85;;;;;;;;;;5071620;28;20224;-53
2021/01/30 05:59:48;;;;;;;17.30;11.20;;;;;;;;;;5072029;28;20198;-53
2021/01/30 06:02:17;;;;;;;18.30;12.35;;;;;;;;;;5072022;28;20448;-52
2021/01/30 06:04:43;;;;;;;15.95;11.32;;;;;;;;;;5072032;28;20166;-52
2021/01/30 06:07:20;;;;;;;16.50;11.40;;;;;;;;;;5071609;28;20190;-51
2021/01/30 06:09:46;;;;;;;15.48;10.60;;;;;;;;;;5071169;28;20225;-52
2021/01/30 06:12:27;;;;;;;17.33;12.67;;;;;;;;;;5071807;28;20201;-51
2021/01/30 06:14:54;;;;;;;18.60;11.80;;;;;;;;;;5071652;28;20443;-51
2021/01/30 06:17:26;;;;;;;13.55;10.65;;;;;;;;;;5071367;28;20166;-52
2021/01/30 06:20:12;;;;;;;22.63;11.75;;;;;;;;;;5071538;28;20676;-52
2021/01/30 06:22:38;;;;;;;19.02;11.57;;;;;;;;;;5071455;28;20194;-51
2021/01/30 06:25:23;;;;;;;14.82;11.05;;;;;;;;;;5071567;28;20645;-53
2021/01/30 06:27:49;;;;;;;15.63;11.20;;;;;;;;;;5071322;28;20209;-52
2021/01/30 06:30:27;;;;;;;17.02;12.35;;;;;;;;;;5071456;28;20243;-51
2021/01/30 06:32:57;;;;;;;17.63;11.50;;;;;;;;;;5071342;28;20170;-51
2021/01/30 06:35:25;;;;;;;14.55;10.18;;;;;;;;;;5071268;28;20195;-52
2021/01/30 06:37:53;;;;;;;13.40;10.00;;;;;;;;;;5071158;28;20657;-53
2021/01/30 06:40:34;;;;;;;11.93;9.65;;;;;;;;;;5071255;28;20220;-51
2021/01/30 06:43:09;;;;;;;11.13;8.60;;;;;;;;;;5071016;28;20272;-51
2021/01/30 06:45:39;;;;;;;12.52;9.15;;;;;;;;;;5070645;28;20177;-53
2021/01/30 06:48:09;;;;;;;10.05;7.85;;;;;;;;;;5070895;28;20657;-51
2021/01/30 06:50:40;;;;;;;10.20;9.05;;;;;;;;;;5071100;28;20617;-51
2021/01/30 06:53:18;;;;;;;11.27;8.20;;;;;;;;;;5071103;28;20231;-51
2021/01/30 06:55:44;;;;;;;11.02;8.15;;;;;;;;;;5070778;28;20664;-52
2021/01/30 06:58:26;;;;;;;10.00;8.02;;;;;;;;;;5071021;28;20174;-52
2021/01/30 07:00:54;;;;;;;10.48;7.95;;;;;;;;;;5070963;28;20725;-51
2021/01/30 07:03:19;;;;;;;11.68;9.55;;;;;;;;;;5070931;28;20242;-52
2021/01/30 07:05:49;;;;;;;12.23;9.50;;;;;;;;;;5070646;28;20249;-53
2021/01/30 07:08:36;;;;;;;9.10;7.50;;;;;;;;;;5070875;28;20428;-51
2021/01/30 07:11:08;;;;;;;11.82;8.43;;;;;;;;;;5070904;28;20590;-52
2021/01/30 07:13:49;;;;;;;11.25;7.78;;;;;;;;;;5070762;28;20548;-52
2021/01/30 07:16:15;;;;;;;12.70;8.27;;;;;;;;;;5070539;28;20176;-53
2021/01/30 07:19:04;;;;;;;11.45;8.68;;;;;;;;;;5070501;28;20174;-53
2021/01/30 07:21:31;;;;;;;10.70;7.43;;;;;;;;;;5061499;28;20205;-51
2021/01/30 07:24:16;;;;;;;11.20;8.38;;;;;;;;;;5070766;28;20170;-52
2021/01/30 07:26:48;;;;;;;9.27;7.85;;;;;;;;;;5070419;28;20174;-52
2021/01/30 07:29:28;;;;;;;6.30;5.70;;;;;;;;;;5078775;28;20185;-55
2021/01/30 07:32:16;;;;;;;6.25;5.65;;;;;;;;;;5081080;28;20166;-55
2021/01/30 07:34:45;;;;;;;6.60;6.00;;;;;;;;;;5080483;28;20166;-55
2021/01/30 07:37:16;;;;;;;6.40;5.63;;;;;;;;;;5080900;28;20595;-52
2021/01/30 07:39:50;;;;;;;7.18;6.45;;;;;;;;;;5080911;28;20646;-53
2021/01/30 07:42:20;;;;;;;6.65;5.97;;;;;;;;;;5081110;28;20203;-54
2021/01/30 07:44:48;;;;;;;7.20;5.60;;;;;;;;;;5080575;28;20189;-54
2021/01/30 07:47:17;;;;;;;6.82;5.35;;;;;;;;;;5079298;28;20247;-53
2021/01/30 07:49:45;;;;;;;6.97;6.28;;;;;;;;;;5080310;28;20189;-55
2021/01/30 07:52:23;;;;;;;7.55;6.22;;;;;;;;;;5081097;28;20170;-52
2021/01/30 07:54:53;;;;;;;7.07;6.15;;;;;;;;;;5081436;28;20638;-55
2021/01/30 07:57:41;;;;;;;8.40;7.57;;;;;;;;;;5081149;28;20174;-55
2021/01/30 08:00:19;;;;;;;8.00;7.20;;;;;;;;;;5082179;28;20189;-55
2021/01/30 08:03:03;;;;;;;7.10;6.07;;;;;;;;;;5081484;28;20202;-54
2021/01/30 08:05:29;;;;;;;7.70;6.90;;;;;;;;;;5081538;28;20184;-54
2021/01/30 08:07:55;;;;;;;8.82;7.05;;;;;;;;;;5081491;28;20170;-54
2021/01/30 08:10:25;;;;;;;6.43;5.87;;;;;;;;;;5081412;28;20201;-55
2021/01/30 08:13:12;;;;;;;6.55;5.95;;;;;;;;;;5080516;28;20435;-54
2021/01/30 08:15:44;;;;;;;7.88;6.93;;;;;;;;;;5082343;28;20265;-53
2021/01/30 08:18:21;;;;;;;7.18;5.80;;;;;;;;;;5082653;28;20215;-54
2021/01/30 08:20:47;;;;;;;10.93;8.25;;;;;;;;;;5081785;28;20562;-52
2021/01/30 08:23:25;;;;;;;10.00;6.87;;;;;;;;;;5081784;28;20197;-51
2021/01/30 08:25:51;;;;;;;9.20;6.57;;;;;;;;;;5081560;28;20471;-53
2021/01/30 08:28:20;;;;;;;7.50;6.23;;;;;;;;;;5082554;28;20227;-53
2021/01/30 08:30:51;;;;;;;8.60;5.88;;;;;;;;;;5082502;28;20485;-53
2021/01/30 08:33:17;;;;;;;7.88;7.07;;;;;;;;;;5083242;28;20230;-52
2021/01/30 08:35:48;;;;;;;10.20;7.47;;;;;;;;;;5086495;28;20177;-52
2021/01/30 08:38:17;;;;;;;8.55;7.45;;;;;;;;;;5085077;28;20185;-52
2021/01/30 08:40:55;;;;;;;8.00;7.10;;;;;;;;;;5087491;28;20182;-52
2021/01/30 08:43:21;;;;;;;8.70;7.20;;;;;;;;;;5087414;28;20166;-52
2021/01/30 08:45:47;;;;;;;8.77;6.00;;;;;;;;;;5087588;28;20170;-51
2021/01/30 08:48:16;;;;;;;10.03;7.97;;;;;;;;;;5084893;28;20416;-54
2021/01/30 08:50:44;;;;;;;8.90;7.50;;;;;;;;;;5082610;28;20456;-53
2021/01/30 08:53:17;;;;;;;8.40;7.60;;;;;;;;;;5083227;28;20256;-55
2021/01/30 08:55:46;;;;;;;11.18;7.80;;;;;;;;;;5083031;28;20193;-53
2021/01/30 08:58:31;;;;;;;10.98;8.43;;;;;;;;;;5083432;28;20197;-55
2021/01/30 09:00:58;;;;;;;9.70;7.38;;;;;;;;;;5082454;28;20169;-52
2021/01/30 09:03:44;;;;;;;11.35;8.20;;;;;;;;;;5082845;28;20185;-55
2021/01/30 09:06:10;;;;;;;10.07;7.43;;;;;;;;;;5082513;28;20158;-54
2021/01/30 09:08:43;;;;;;;11.80;7.72;;;;;;;;;;5082636;28;20171;-53
2021/01/30 09:11:24;;;;;;;14.05;8.20;;;;;;;;;;5082116;28;20189;-54
2021/01/30 09:14:01;;;;;;;10.00;6.50;;;;;;;;;;5091907;28;20177;-54
2021/01/30 09:16:31;;;;;;;9.55;7.80;;;;;;;;;;5102884;28;20173;-53
2021/01/30 09:18:59;;;;;;;8.60;7.53;;;;;;;;;;5103929;28;20463;-55
2021/01/30 09:21:34;;;;;;;9.77;7.80;;;;;;;;;;5103742;28;20684;-54
2021/01/30 09:24:06;;;;;;;11.02;8.25;;;;;;;;;;5102826;28;20200;-53
2021/01/30 09:26:38;;;;;;;8.82;7.55;;;;;;;;;;5102417;28;20169;-53
2021/01/30 09:29:05;;;;;;;9.85;6.95;;;;;;;;;;5102640;28;20182;-55
2021/01/30 09:31:31;;;;;;;8.45;7.55;;;;;;;;;;5103515;28;20169;-54
2021/01/30 09:34:03;;;;;;;8.77;7.80;;;;;;;;;;5102982;28;20173;-55
2021/01/30 09:36:38;;;;;;;6.80;6.13;;;;;;;;;;5103081;28;20176;-53
2021/01/30 09:39:10;;;;;;;9.18;7.00;;;;;;;;;;5086010;28;20208;-51
2021/01/30 09:41:37;;;;;;;8.90;6.82;;;;;;;;;;5103165;28;20193;-53
2021/01/30 09:44:20;;;;;;;8.00;7.20;;;;;;;;;;5102596;28;20172;-53
2021/01/30 09:46:48;;;;;;;7.82;7.03;;;;;;;;;;5102188;28;20165;-54
2021/01/30 09:49:24;;;;;;;8.48;6.85;;;;;;;;;;5102860;28;20203;-54
2021/01/30 09:51:53;;;;;;;7.05;6.35;;;;;;;;;;5103925;28;20184;-52
2021/01/30 09:54:19;;;;;;;8.57;6.35;;;;;;;;;;5104045;28;20165;-52
2021/01/30 09:56:46;;;;;;;6.70;6.07;;;;;;;;;;5103749;28;20169;-50
2021/01/30 09:59:13;;;;;;;6.78;6.07;;;;;;;;;;5104028;28;20228;-54
2021/01/30 10:01:41;;;;;;;8.60;6.53;;;;;;;;;;5103318;28;20260;-52
2021/01/30 10:04:18;;;;;;;6.15;5.57;;;;;;;;;;5102882;28;20162;-54
2021/01/30 10:06:46;;;;;;;5.32;4.93;;;;;;;;;;5102552;28;20194;-53
2021/01/30 10:09:14;;;;;;;5.68;5.18;;;;;;;;;;5084879;28;20214;-52
2021/01/30 10:11:41;;;;;;;5.22;4.72;;;;;;;;;;5083943;28;20170;-53
2021/01/30 10:14:08;;;;;;;5.50;5.00;;;;;;;;;;5083112;28;20170;-54
2021/01/30 10:16:34;;;;;;;5.68;5.18;;;;;;;;;;5082822;28;20170;-54
2021/01/30 10:19:23;;;;;;;5.03;4.53;;;;;;;;;;5082648;28;20277;-55
2021/01/30 10:21:49;;;;;;;6.00;5.40;;;;;;;;;;5082594;28;20190;-52
2021/01/30 10:24:26;;;;;;;6.68;6.03;;;;;;;;;;5080280;28;20174;-53
2021/01/30 10:26:53;;;;;;;4.55;4.25;;;;;;;;;;5082244;28;20164;-53
2021/01/30 10:29:21;;;;;;;5.10;4.70;;;;;;;;;;5082299;28;20189;-52
2021/01/30 10:31:47;;;;;;;7.28;4.97;;;;;;;;;;5082004;28;20185;-51
2021/01/30 10:34:33;;;;;;;5.23;4.70;;;;;;;;;;5081275;28;20171;-52
2021/01/30 10:37:04;;;;;;;5.55;4.82;;;;;;;;;;5081721;28;20409;-53
2021/01/30 10:39:37;;;;;;;8.25;4.90;;;;;;;;;;5081493;28;20210;-54
2021/01/30 10:42:09;;;;;;;4.53;4.05;;;;;;;;;;5081031;28;20224;-52
2021/01/30 10:44:36;;;;;;;6.03;5.25;;;;;;;;;;5080207;28;20160;-52
2021/01/30 10:47:04;;;;;;;4.75;4.35;;;;;;;;;;5080508;28;20187;-54
2021/01/30 10:49:37;;;;;;;4.70;4.30;;;;;;;;;;5080627;28;20185;-52
2021/01/30 10:52:09;;;;;;;5.13;4.55;;;;;;;;;;5081133;28;20574;-53
2021/01/30 10:54:36;;;;;;;3.75;3.45;;;;;;;;;;5077872;28;20188;-53
2021/01/30 10:57:11;;;;;;;4.57;4.18;;;;;;;;;;5079918;28;20175;-51
2021/01/30 10:59:44;;;;;;;3.85;3.50;;;;;;;;;;5080038;28;20223;-54
2021/01/30 11:02:29;;;;;;;3.53;3.22;;;;;;;;;;5079941;28;20200;-54
2021/01/30 11:05:01;;;;;;;3.97;3.67;;;;;;;;;;5080491;28;20228;-53
2021/01/30 11:07:36;;;;;;;4.05;3.72;;;;;;;;;;5082024;28;20159;-54
2021/01/30 11:10:02;;;;;;;5.05;3.80;;;;;;;;;;5081796;28;20201;-50
2021/01/30 11:12:28;;;;;;;3.67;3.37;;;;;;;;;;5082118;28;20170;-51
2021/01/30 11:14:54;;;;;;;4.13;3.73;;;;;;;;;;5082687;28;20407;-51
2021/01/30 11:17:34;;;;;;;3.83;3.53;;;;;;;;;;5081814;28;20859;-53
2021/01/30 11:20:00;;;;;;;4.70;3.25;;;;;;;;;;5082477;28;20479;-53
2021/01/30 11:22:28;;;;;;;3.90;3.60;;;;;;;;;;5081395;28;20658;-51
2021/01/30 11:25:06;;;;;;;3.97;3.67;;;;;;;;;;5082128;28;20175;-54
2021/01/30 11:27:36;;;;;;;3.20;2.90;;;;;;;;;;5082239;28;20176;-54
2021/01/30 11:30:16;;;;;;;3.45;3.15;;;;;;;;;;5082684;28;20238;-52
2021/01/30 11:32:55;;;;;;;3.00;2.80;;;;;;;;;;5081805;28;20197;-53
2021/01/30 11:35:29;;;;;;;3.88;3.03;;;;;;;;;;5081041;28;20221;-52
2021/01/30 11:37:57;;;;;;;3.25;2.92;;;;;;;;;;5081741;28;20235;-52
2021/01/30 11:40:23;;;;;;;6.30;3.35;;;;;;;;;;5082435;28;20248;-52
2021/01/30 11:42:49;;;;;;;3.78;3.47;;;;;;;;;;5080637;28;20195;-51
2021/01/30 11:45:15;;;;;;;2.38;2.25;;;;;;;;;;5079475;28;20738;-53
2021/01/30 11:47:41;;;;;;;2.92;2.67;;;;;;;;;;5079390;28;20588;-51
2021/01/30 11:50:08;;;;;;;3.03;2.80;;;;;;;;;;5079869;28;20191;-53
2021/01/30 11:52:34;;;;;;;2.40;2.20;;;;;;;;;;5080777;28;20171;-54
2021/01/30 11:55:03;;;;;;;2.65;2.45;;;;;;;;;;5079869;28;20631;-54
2021/01/30 11:57:29;;;;;;;2.67;2.47;;;;;;;;;;5079441;28;20175;-54
2021/01/30 11:59:56;;;;;;;3.13;2.92;;;;;;;;;;5084752;28;20208;-53
2021/01/30 12:02:35;;;;;;;2.67;2.47;;;;;;;;;;5100221;28;20206;-52
2021/01/30 12:05:01;;;;;;;3.78;3.20;;;;;;;;;;5100623;28;20162;-54
2021/01/30 12:07:27;;;;;;;2.70;2.58;;;;;;;;;;5100900;28;20646;-54
2021/01/30 12:09:53;;;;;;;2.67;2.57;;;;;;;;;;5105133;28;20267;-53
2021/01/30 12:12:19;;;;;;;3.07;2.87;;;;;;;;;;5103954;28;20442;-54
2021/01/30 12:14:45;;;;;;;2.87;2.67;;;;;;;;;;5085775;28;20515;-54
2021/01/30 12:17:14;;;;;;;2.65;2.47;;;;;;;;;;5085000;28;20404;-54
2021/01/30 12:19:40;;;;;;;3.38;3.08;;;;;;;;;;5084571;28;20606;-53
2021/01/30 12:22:06;;;;;;;3.63;3.40;;;;;;;;;;5085544;28;20666;-54
2021/01/30 12:24:32;;;;;;;2.73;2.53;;;;;;;;;;5085702;28;20159;-54
2021/01/30 12:26:58;;;;;;;4.40;2.90;;;;;;;;;;5085593;28;20393;-53
2021/01/30 12:29:24;;;;;;;2.70;2.50;;;;;;;;;;5085588;28;20478;-52
2021/01/30 12:31:50;;;;;;;2.67;2.47;;;;;;;;;;5086398;28;20405;-54
2021/01/30 12:34:16;;;;;;;3.70;3.40;;;;;;;;;;5085827;28;20398;-53
2021/01/30 12:36:42;;;;;;;2.97;2.78;;;;;;;;;;5085308;28;20462;-53
2021/01/30 12:39:08;;;;;;;3.20;2.90;;;;;;;;;;5084755;28;20235;-51
2021/01/30 12:41:34;;;;;;;3.30;3.00;;;;;;;;;;5084763;28;20464;-51
2021/01/30 12:44:00;;;;;;;2.70;2.50;;;;;;;;;;5083190;28;20425;-52
2021/01/30 12:46:26;;;;;;;2.88;2.67;;;;;;;;;;5082666;28;20260;-52
2021/01/30 12:48:52;;;;;;;2.80;2.60;;;;;;;;;;5084081;28;20225;-51
2021/01/30 12:51:19;;;;;;;3.40;2.97;;;;;;;;;;5083479;28;20925;-54
2021/01/30 12:53:45;;;;;;;2.67;2.47;;;;;;;;;;5083423;28;20461;-54
2021/01/30 12:56:11;;;;;;;3.70;2.80;;;;;;;;;;5083192;28;20198;-53
2021/01/30 12:58:37;;;;;;;3.13;2.93;;;;;;;;;;5083902;28;20403;-54
2021/01/30 13:01:03;;;;;;;3.40;3.13;;;;;;;;;;5082239;28;20465;-54
2021/01/30 13:03:29;;;;;;;2.92;2.72;;;;;;;;;;5083660;28;20401;-54
2021/01/30 13:05:55;;;;;;;2.67;2.47;;;;;;;;;;5082867;28;20179;-51
2021/01/30 13:08:21;;;;;;;2.65;2.45;;;;;;;;;;5082975;28;20423;-52
2021/01/30 13:10:47;;;;;;;3.58;2.50;;;;;;;;;;5083061;28;20202;-52
2021/01/30 13:13:13;;;;;;;3.30;2.93;;;;;;;;;;5083504;28;20202;-53
2021/01/30 13:15:40;;;;;;;3.00;2.80;;;;;;;;;;5082815;28;20405;-53
2021/01/30 13:18:06;;;;;;;2.83;2.60;;;;;;;;;;5082121;28;20258;-51
2021/01/30 13:20:32;;;;;;;6.85;3.20;;;;;;;;;;5082392;28;20187;-55
2021/01/30 13:22:58;;;;;;;3.22;3.03;;;;;;;;;;5082978;28;20186;-53
2021/01/30 13:25:24;;;;;;;2.50;2.40;;;;;;;;;;5082366;28;20175;-53
2021/01/30 13:27:51;;;;;;;3.33;3.13;;;;;;;;;;5089066;28;20545;-53
2021/01/30 13:30:19;;;;;;;3.05;2.83;;;;;;;;;;5073795;28;20218;-53
2021/01/30 13:32:45;;;;;;;3.35;3.05;;;;;;;;;;5073372;28;20179;-50
2021/01/30 13:35:16;;;;;;;3.20;3.00;;;;;;;;;;5072479;28;20179;-50
2021/01/30 13:37:42;;;;;;;3.58;3.28;;;;;;;;;;5072439;28;20650;-50
2021/01/30 13:40:08;;;;;;;3.57;3.10;;;;;;;;;;5072528;28;20389;-51
2021/01/30 13:42:34;;;;;;;3.42;3.13;;;;;;;;;;5072481;28;20460;-53
2021/01/30 13:45:00;;;;;;;6.72;4.00;;;;;;;;;;5072542;28;20183;-53
2021/01/30 13:47:27;;;;;;;4.67;4.27;;;;;;;;;;5072022;28;20192;-51
2021/01/30 13:49:53;;;;;;;4.38;3.97;;;;;;;;;;5071945;28;20415;-51
2021/01/30 13:52:19;;;;;;;5.13;4.63;;;;;;;;;;5072623;28;20299;-50
2021/01/30 13:54:45;;;;;;;4.10;3.42;;;;;;;;;;5072243;28;20908;-50
2021/01/30 13:57:11;;;;;;;6.20;4.32;;;;;;;;;;5071657;28;20593;-51
2021/01/30 13:59:37;;;;;;;4.93;3.70;;;;;;;;;;5072653;28;20242;-50
2021/01/30 14:02:03;;;;;;;5.40;4.77;;;;;;;;;;5079049;28;20198;-54
2021/01/30 14:04:29;;;;;;;6.47;4.95;;;;;;;;;;5073572;28;20463;-52
2021/01/30 14:06:55;;;;;;;6.50;4.23;;;;;;;;;;5071850;28;20181;-50
2021/01/30 14:09:22;;;;;;;6.30;5.10;;;;;;;;;;5078257;28;20432;-51
2021/01/30 14:11:49;;;;;;;5.63;5.10;;;;;;;;;;5071615;28;20169;-51
2021/01/30 14:14:15;;;;;;;5.75;5.07;;;;;;;;;;5070411;28;20183;-50
2021/01/30 14:16:41;;;;;;;5.07;4.57;;;;;;;;;;5081617;28;20780;-49
2021/01/30 14:19:07;;;;;;;4.27;3.87;;;;;;;;;;5084054;28;20778;-55
2021/01/30 14:21:33;;;;;;;5.15;4.65;;;;;;;;;;5081107;28;20506;-51
2021/01/30 14:23:59;;;;;;;6.07;4.40;;;;;;;;;;5084423;28;20292;-52
2021/01/30 14:26:28;;;;;;;6.50;5.57;;;;;;;;;;5084611;28;20405;-52
2021/01/30 14:28:54;;;;;;;9.27;5.50;;;;;;;;;;5086545;28;20504;-53
2021/01/30 14:31:21;;;;;;;5.65;4.85;;;;;;;;;;5084843;28;20170;-52
2021/01/30 14:33:47;;;;;;;5.45;4.30;;;;;;;;;;5082024;28;20170;-53
2021/01/30 14:36:14;;;;;;;4.20;3.80;;;;;;;;;;5083633;28;20170;-52
2021/01/30 14:38:40;;;;;;;6.20;4.95;;;;;;;;;;5084077;28;20675;-52
2021/01/30 14:41:06;;;;;;;6.40;5.50;;;;;;;;;;5083802;28;20183;-52
2021/01/30 14:43:32;;;;;;;7.05;5.35;;;;;;;;;;5084496;28;20170;-53
2021/01/30 14:45:59;;;;;;;8.43;4.57;;;;;;;;;;5083933;28;20222;-50